Time;durP1;ratioP1;P1;durP2;ratioP2;P2;SDS_P1;SDS_P2;PMS_P1;PMS_P2;Temp;Humidity;BMP_temperature;BMP_pressure;BME280_temperature;BME280_humidity;BME280_pressure;Samples;Min_cycle;Max_cycle;Signal;HPM_P1;HPM_P2
2022/10/31 08:09:14;;;;;;;4.33;2.73;;;14.00;99.90;;;;;;3998945;23;20240;-70
2022/10/31 08:11:41;;;;;;;5.73;3.17;;;14.30;99.90;;;;;;4862886;29;20212;-71
2022/10/31 08:14:07;;;;;;;5.80;3.13;;;14.40;99.90;;;;;;4865851;29;20222;-72
2022/10/31 08:16:34;;;;;;;5.23;2.80;;;14.30;99.90;;;;;;4866808;29;20318;-72
2022/10/31 08:19:01;;;;;;;7.23;3.10;;;14.30;99.90;;;;;;4864524;29;20238;-71
2022/10/31 08:21:28;;;;;;;5.27;3.10;;;14.40;99.90;;;;;;4861094;29;20215;-70
2022/10/31 08:23:54;;;;;;;7.27;3.60;;;14.40;99.90;;;;;;4861594;29;20212;-71
2022/10/31 08:26:23;;;;;;;6.33;3.50;;;14.40;99.90;;;;;;4861649;29;20236;-71
2022/10/31 08:28:50;;;;;;;6.67;3.27;;;14.50;99.90;;;;;;4861782;29;20220;-71
2022/10/31 08:31:16;;;;;;;5.70;3.50;;;14.50;99.90;;;;;;4861822;29;20284;-71
2022/10/31 08:33:43;;;;;;;5.70;3.10;;;14.70;99.90;;;;;;4861457;29;20211;-71
2022/10/31 08:36:10;;;;;;;8.20;3.10;;;15.00;99.90;;;;;;4861478;29;20258;-71
2022/10/31 08:38:37;;;;;;;9.60;3.67;;;15.00;99.90;;;;;;4861274;29;20222;-70
2022/10/31 08:41:03;;;;;;;4.73;3.17;;;14.80;99.90;;;;;;4861385;29;20250;-71
2022/10/31 08:43:31;;;;;;;6.07;3.57;;;14.90;99.90;;;;;;4861633;29;20220;-70
2022/10/31 08:45:58;;;;;;;5.47;3.40;;;14.80;99.90;;;;;;4861483;29;20232;-71
2022/10/31 08:48:25;;;;;;;6.00;3.20;;;14.70;99.90;;;;;;4861590;29;20216;-71
2022/10/31 08:50:52;;;;;;;6.20;3.10;;;14.80;99.90;;;;;;4861152;29;20220;-72
2022/10/31 08:53:19;;;;;;;5.27;2.93;;;14.70;99.90;;;;;;4861348;29;20682;-71
2022/10/31 08:55:47;;;;;;;6.90;3.17;;;14.70;99.90;;;;;;4861354;29;20591;-72
2022/10/31 08:58:15;;;;;;;7.57;3.27;;;14.70;99.90;;;;;;4861497;29;20211;-71
2022/10/31 09:00:44;;;;;;;4.87;3.00;;;14.90;99.90;;;;;;4860895;29;20844;-71
2022/10/31 09:03:14;;;;;;;6.30;2.97;;;15.00;99.90;;;;;;4861029;29;20211;-71
2022/10/31 09:05:41;;;;;;;8.03;3.47;;;14.90;99.90;;;;;;4861140;29;20231;-72
2022/10/31 09:08:08;;;;;;;6.07;2.93;;;15.00;99.90;;;;;;4861275;29;20222;-71
2022/10/31 09:10:37;;;;;;;8.10;3.00;;;14.90;99.90;;;;;;4860930;29;20226;-71
2022/10/31 09:13:08;;;;;;;6.07;3.50;;;15.20;99.90;;;;;;4860988;29;20212;-72
2022/10/31 09:15:38;;;;;;;4.00;2.80;;;15.40;99.90;;;;;;4861039;29;20220;-70
2022/10/31 09:18:06;;;;;;;6.53;2.73;;;15.50;99.90;;;;;;4861091;29;20216;-70
2022/10/31 09:20:34;;;;;;;7.10;3.23;;;15.60;99.90;;;;;;4861187;29;20247;-71
2022/10/31 09:23:03;;;;;;;4.90;2.83;;;15.80;99.90;;;;;;4861008;29;20220;-71
2022/10/31 09:25:30;;;;;;;5.23;3.20;;;16.00;99.90;;;;;;4860797;29;20216;-71
2022/10/31 09:27:58;;;;;;;5.23;2.83;;;16.00;99.90;;;;;;4860340;29;20218;-71
2022/10/31 09:30:25;;;;;;;5.93;3.00;;;16.10;99.90;;;;;;4860596;29;20264;-71
2022/10/31 09:32:56;;;;;;;5.33;2.70;;;15.80;99.90;;;;;;4860606;29;20219;-71
2022/10/31 09:35:25;;;;;;;5.47;2.97;;;15.80;99.90;;;;;;4860594;29;20216;-71
2022/10/31 09:37:55;;;;;;;6.70;3.27;;;15.60;99.90;;;;;;4860649;29;20227;-71
2022/10/31 09:40:23;;;;;;;4.57;3.07;;;15.50;99.90;;;;;;4860603;29;20243;-70
2022/10/31 09:43:00;;;;;;;6.20;3.27;;;15.40;99.90;;;;;;4860847;29;20214;-71
2022/10/31 09:45:34;;;;;;;10.37;4.63;;;15.60;99.90;;;;;;4861588;29;20545;-72
2022/10/31 09:48:15;;;;;;;9.37;4.47;;;15.80;99.90;;;;;;4861418;29;20211;-72
2022/10/31 09:50:47;;;;;;;15.87;6.67;;;15.90;99.90;;;;;;4860824;29;20212;-72
2022/10/31 09:53:22;;;;;;;16.40;8.20;;;15.90;99.90;;;;;;4861032;29;20215;-71
2022/10/31 09:55:51;;;;;;;20.60;9.80;;;15.70;99.90;;;;;;4860696;29;20595;-70
2022/10/31 09:58:24;;;;;;;22.90;11.67;;;15.80;99.90;;;;;;4860852;29;20222;-71
2022/10/31 10:00:50;;;;;;;19.50;8.43;;;15.70;99.90;;;;;;4860337;29;20736;-72
2022/10/31 10:03:29;;;;;;;14.93;7.33;;;15.90;99.90;;;;;;4860124;29;20211;-71
2022/10/31 10:06:05;;;;;;;18.10;7.63;;;15.90;99.90;;;;;;4860529;29;20231;-72
2022/10/31 10:08:33;;;;;;;13.80;7.33;;;15.90;99.90;;;;;;4860792;29;20234;-72
2022/10/31 10:11:09;;;;;;;15.07;6.60;;;15.90;99.90;;;;;;4860411;29;20342;-71
2022/10/31 10:14:00;;;;;;;16.87;7.93;;;15.80;99.90;;;;;;4860338;29;20298;-71
2022/10/31 10:16:43;;;;;;;10.50;6.03;;;15.80;99.90;;;;;;4860668;29;20242;-70
2022/10/31 10:19:27;;;;;;;8.93;4.67;;;16.10;99.90;;;;;;4860512;29;20207;-70
2022/10/31 10:22:06;;;;;;;6.70;3.67;;;16.10;99.90;;;;;;4860230;29;20208;-71
2022/10/31 10:24:50;;;;;;;6.97;3.07;;;16.20;99.90;;;;;;4860541;29;20218;-71
2022/10/31 10:27:27;;;;;;;5.87;3.00;;;16.50;99.90;;;;;;4860004;29;20539;-71
2022/10/31 10:30:02;;;;;;;8.10;2.93;;;16.60;99.90;;;;;;4860435;29;20227;-70
2022/10/31 10:32:41;;;;;;;5.57;3.00;;;16.60;99.90;;;;;;4860116;29;20211;-70
2022/10/31 10:35:17;;;;;;;5.43;2.77;;;16.50;99.90;;;;;;4860431;29;20215;-71
2022/10/31 10:37:47;;;;;;;4.13;2.50;;;16.50;99.90;;;;;;4860265;29;20227;-72
2022/10/31 10:40:17;;;;;;;8.67;3.30;;;16.50;99.90;;;;;;4859924;29;20247;-72
2022/10/31 10:48:28;;;;;;;4.27;3.03;;;16.90;99.90;;;;;;4862755;29;20321;-70
2022/10/31 10:50:54;;;;;;;7.40;3.40;;;16.60;99.90;;;;;;4862716;29;20211;-71
2022/10/31 10:53:59;;;;;;;6.07;3.20;;;16.40;99.90;;;;;;4860546;29;20307;-72
2022/10/31 10:56:36;;;;;;;7.67;3.10;;;16.50;99.90;;;;;;4862682;29;20259;-70
2022/10/31 10:59:04;;;;;;;9.00;3.43;;;16.70;99.90;;;;;;4862156;29;20216;-72
2022/10/31 11:01:31;;;;;;;5.70;3.17;;;16.70;99.90;;;;;;4861732;29;20239;-72
2022/10/31 11:03:57;;;;;;;6.40;3.30;;;16.80;99.90;;;;;;4862924;29;20556;-72
2022/10/31 11:06:26;;;;;;;9.80;3.10;;;17.00;99.90;;;;;;4863200;29;20227;-72
2022/10/31 11:08:54;;;;;;;4.47;3.00;;;17.00;99.90;;;;;;4863072;29;20735;-72
2022/10/31 11:11:27;;;;;;;8.75;3.53;;;17.10;99.90;;;;;;4862869;29;20216;-71
2022/10/31 11:14:00;;;;;;;7.77;3.10;;;17.10;99.90;;;;;;4863104;29;20212;-72
2022/10/31 11:16:33;;;;;;;6.18;3.00;;;17.10;99.90;;;;;;4863103;29;20240;-72
2022/10/31 11:19:09;;;;;;;8.18;2.92;;;17.00;99.90;;;;;;4862903;29;20262;-71
2022/10/31 11:21:36;;;;;;;7.80;3.50;;;17.00;99.90;;;;;;4862962;29;20246;-72
2022/10/31 11:24:13;;;;;;;6.80;3.10;;;17.00;99.90;;;;;;4862561;29;20579;-71
2022/10/31 11:26:41;;;;;;;7.60;3.03;;;17.00;99.90;;;;;;4862433;29;20243;-72
2022/10/31 11:29:16;;;;;;;5.17;3.00;;;17.20;99.90;;;;;;4863110;29;20219;-72
2022/10/31 11:31:43;;;;;;;5.47;2.60;;;17.30;99.90;;;;;;4862608;29;20207;-72
2022/10/31 11:34:18;;;;;;;8.88;2.95;;;17.30;99.90;;;;;;4862429;29;20227;-72
2022/10/31 11:36:45;;;;;;;4.45;2.80;;;17.50;99.90;;;;;;4862574;29;20259;-72
2022/10/31 11:39:20;;;;;;;7.93;3.10;;;17.50;99.90;;;;;;4862630;29;20222;-72
2022/10/31 11:41:48;;;;;;;6.30;2.85;;;17.60;99.90;;;;;;4862319;29;20243;-71
2022/10/31 11:44:18;;;;;;;7.18;2.67;;;17.70;99.90;;;;;;4862628;29;20215;-69
2022/10/31 11:46:48;;;;;;;9.75;2.78;;;17.80;99.90;;;;;;4862455;29;20696;-70
2022/10/31 11:49:19;;;;;;;5.80;3.33;;;17.80;99.90;;;;;;4862433;29;20219;-72
2022/10/31 11:51:49;;;;;;;5.30;2.95;;;17.80;99.90;;;;;;4862415;29;20695;-70
2022/10/31 11:54:24;;;;;;;5.65;2.80;;;17.80;99.90;;;;;;4862185;29;20208;-70
2022/10/31 11:56:51;;;;;;;3.95;2.83;;;17.90;99.90;;;;;;4861901;29;20238;-70
2022/10/31 11:59:26;;;;;;;4.85;2.30;;;17.80;99.90;;;;;;4862419;29;20208;-70
2022/10/31 12:01:55;;;;;;;7.03;3.13;;;17.90;99.90;;;;;;4862104;29;20239;-70
2022/10/31 12:04:35;;;;;;;5.82;2.47;;;18.10;99.90;;;;;;4862148;29;20226;-70
2022/10/31 12:07:02;;;;;;;5.65;2.75;;;18.10;99.90;;;;;;4862207;29;20232;-72
2022/10/31 12:09:34;;;;;;;4.93;2.60;;;18.00;99.90;;;;;;4862140;29;20220;-72
2022/10/31 12:12:24;;;;;;;4.40;2.45;;;18.00;99.90;;;;;;4862041;29;20231;-71
2022/10/31 12:15:06;;;;;;;9.00;2.65;;;17.90;99.90;;;;;;4854249;29;20224;-72
2022/10/31 12:17:42;;;;;;;6.32;2.83;;;17.90;99.90;;;;;;4861955;29;20238;-71
2022/10/31 12:20:21;;;;;;;7.20;3.00;;;18.10;99.90;;;;;;4862057;29;20231;-71
2022/10/31 12:22:57;;;;;;;6.57;3.03;;;18.10;99.90;;;;;;4861890;29;20675;-72
2022/10/31 12:25:38;;;;;;;8.05;2.85;;;18.20;99.90;;;;;;4861919;29;20211;-71
2022/10/31 12:28:34;;;;;;;4.35;2.28;;;18.30;99.90;;;;;;4862076;29;20223;-71
2022/10/31 12:31:13;;;;;;;5.10;2.33;;;18.30;99.90;;;;;;4861772;29;20223;-71
2022/10/31 12:33:52;;;;;;;5.05;3.08;;;18.30;99.90;;;;;;4861963;29;20207;-70
2022/10/31 12:36:36;;;;;;;7.78;2.95;;;18.20;99.90;;;;;;4861880;29;20236;-71
2022/10/31 12:39:24;;;;;;;7.05;2.88;;;18.10;99.90;;;;;;4861619;29;20552;-70
2022/10/31 12:42:02;;;;;;;7.35;2.28;;;18.10;99.90;;;;;;4861550;29;20805;-71
2022/10/31 12:44:43;;;;;;;4.35;2.58;;;18.00;99.90;;;;;;4861662;29;20222;-71
2022/10/31 12:47:29;;;;;;;5.47;2.70;;;18.00;99.90;;;;;;4861429;29;20238;-70
2022/10/31 12:50:09;;;;;;;9.32;3.08;;;17.90;99.90;;;;;;4861324;29;20216;-71
2022/10/31 12:52:49;;;;;;;6.20;2.50;;;17.90;99.90;;;;;;4861360;29;20675;-71
2022/10/31 12:55:31;;;;;;;6.63;2.60;;;18.00;99.90;;;;;;4861464;29;20208;-70
2022/10/31 12:58:03;;;;;;;6.85;2.83;;;18.00;99.90;;;;;;4861484;29;20216;-70
2022/10/31 13:00:34;;;;;;;4.05;2.30;;;17.90;99.90;;;;;;4861149;29;20730;-71
2022/10/31 13:03:15;;;;;;;5.68;2.53;;;18.10;99.90;;;;;;4861258;29;20212;-70
2022/10/31 13:05:45;;;;;;;6.97;3.10;;;18.20;99.90;;;;;;4861125;29;20258;-71
2022/10/31 13:08:17;;;;;;;7.38;2.15;;;18.40;99.90;;;;;;4861020;29;20216;-69
2022/10/31 13:10:46;;;;;;;3.67;2.20;;;18.40;99.90;;;;;;4860873;29;20703;-71
2022/10/31 13:13:19;;;;;;;5.60;2.20;;;18.70;99.90;;;;;;4861129;29;20216;-69
2022/10/31 13:15:50;;;;;;;5.55;2.65;;;18.90;99.90;;;;;;4861403;29;20234;-71
2022/10/31 13:18:27;;;;;;;6.95;2.78;;;19.00;99.90;;;;;;4861093;29;20216;-72
2022/10/31 13:20:56;;;;;;;4.82;3.08;;;19.10;99.90;;;;;;4861153;29;20242;-69
2022/10/31 13:23:29;;;;;;;8.15;3.53;;;19.10;99.90;;;;;;4860779;29;20212;-70
2022/10/31 13:25:58;;;;;;;6.93;3.17;;;19.00;99.90;;;;;;4861002;29;20569;-69
2022/10/31 13:28:32;;;;;;;7.20;2.65;;;19.00;99.90;;;;;;4861052;29;20216;-69
2022/10/31 13:30:59;;;;;;;4.30;2.72;;;18.90;99.90;;;;;;4860975;29;20231;-71
2022/10/31 13:33:30;;;;;;;4.00;2.13;;;18.90;99.90;;;;;;4861017;29;20553;-70
2022/10/31 13:36:08;;;;;;;4.28;2.25;;;18.80;99.90;;;;;;4861015;29;20255;-69
2022/10/31 13:38:39;;;;;;;4.15;2.20;;;18.80;99.90;;;;;;4860868;29;20215;-71
2022/10/31 13:41:19;;;;;;;4.90;2.20;;;18.70;99.90;;;;;;4860581;29;20235;-71
2022/10/31 13:44:00;;;;;;;5.63;2.38;;;18.80;99.90;;;;;;4860831;29;20207;-70
2022/10/31 13:46:37;;;;;;;3.45;2.00;;;18.90;99.90;;;;;;4860449;29;20231;-71
2022/10/31 13:49:04;;;;;;;8.82;2.60;;;18.90;99.90;;;;;;4860996;29;20222;-70
2022/10/31 13:51:35;;;;;;;4.30;2.25;;;19.00;99.90;;;;;;4860937;29;20211;-71
2022/10/31 13:54:07;;;;;;;5.40;2.22;;;18.90;99.90;;;;;;4860782;29;20216;-71
2022/10/31 13:56:35;;;;;;;5.88;2.55;;;18.90;99.90;;;;;;4860366;29;20232;-69
2022/10/31 13:59:20;;;;;;;7.82;3.20;;;18.90;99.90;;;;;;4860950;29;20222;-70
2022/10/31 14:01:56;;;;;;;7.38;2.95;;;18.90;99.90;;;;;;4860726;29;20242;-71
2022/10/31 14:04:25;;;;;;;9.57;2.90;;;18.80;99.90;;;;;;4860740;29;20215;-71
2022/10/31 14:07:00;;;;;;;13.25;4.45;;;18.80;99.90;;;;;;4860937;29;20581;-70
2022/10/31 14:09:31;;;;;;;7.80;2.83;;;18.70;99.90;;;;;;4860530;29;20703;-71
2022/10/31 14:12:00;;;;;;;10.18;3.75;;;18.70;99.90;;;;;;4860440;29;20212;-70
2022/10/31 14:14:45;;;;;;;7.43;2.75;;;18.70;99.90;;;;;;4860644;29;20212;-71
2022/10/31 14:17:20;;;;;;;5.25;2.50;;;18.70;99.90;;;;;;4860374;29;20239;-70
2022/10/31 14:19:59;;;;;;;4.57;2.10;;;18.70;99.90;;;;;;4863062;29;20215;-70
2022/10/31 14:22:30;;;;;;;4.72;1.75;;;18.70;99.90;;;;;;4863999;29;20235;-70
2022/10/31 14:24:57;;;;;;;4.22;1.58;;;18.60;99.90;;;;;;4863949;29;20291;-71
2022/10/31 14:27:44;;;;;;;9.25;2.17;;;18.70;99.90;;;;;;4863875;29;20236;-70
2022/10/31 14:30:22;;;;;;;8.00;2.97;;;18.60;99.90;;;;;;4863896;29;20271;-70
2022/10/31 14:32:53;;;;;;;11.20;4.22;;;18.60;99.90;;;;;;4864104;29;20226;-69
2022/10/31 14:35:21;;;;;;;9.10;3.58;;;18.60;99.90;;;;;;4863702;29;20211;-70
2022/10/31 14:38:12;;;;;;;11.98;4.70;;;18.50;99.90;;;;;;4863656;29;20244;-70
2022/10/31 14:40:53;;;;;;;7.22;3.17;;;18.50;99.90;;;;;;4861884;29;20226;-69
2022/10/31 14:43:42;;;;;;;9.88;3.75;;;18.40;99.90;;;;;;4863671;29;20212;-70
2022/10/31 14:46:18;;;;;;;8.13;3.70;;;18.40;99.90;;;;;;4863306;29;20236;-70
2022/10/31 14:49:08;;;;;;;7.20;2.78;;;18.40;99.90;;;;;;4863261;29;20222;-70
2022/10/31 14:51:40;;;;;;;5.35;2.25;;;18.30;99.90;;;;;;4863542;29;20215;-70
2022/10/31 14:54:13;;;;;;;7.00;2.70;;;18.30;99.90;;;;;;4863514;29;20208;-70
2022/10/31 14:56:49;;;;;;;7.15;2.80;;;18.20;99.90;;;;;;4863225;29;20236;-70
2022/10/31 14:59:21;;;;;;;6.45;2.75;;;18.20;99.90;;;;;;4863455;29;20260;-70
2022/10/31 15:01:57;;;;;;;9.07;3.70;;;18.10;99.90;;;;;;4862970;29;20603;-70
2022/10/31 15:04:25;;;;;;;7.95;3.80;;;18.20;99.90;;;;;;4863405;29;20216;-69
2022/10/31 15:07:00;;;;;;;14.05;4.70;;;18.10;99.90;;;;;;4863244;29;20576;-70
2022/10/31 15:09:29;;;;;;;7.32;3.65;;;18.00;99.90;;;;;;4863181;29;20234;-70
2022/10/31 15:11:56;;;;;;;7.50;3.70;;;17.90;99.90;;;;;;4863190;29;20215;-69
2022/10/31 15:14:25;;;;;;;9.10;3.88;;;17.90;99.90;;;;;;4863326;29;20208;-69
2022/10/31 15:16:54;;;;;;;7.35;4.13;;;17.90;99.90;;;;;;4863273;29;20264;-70
2022/10/31 15:19:25;;;;;;;10.13;4.45;;;17.80;99.90;;;;;;4863106;29;20567;-70
2022/10/31 15:21:53;;;;;;;6.60;3.40;;;17.80;99.90;;;;;;4862800;29;20236;-70
2022/10/31 15:24:23;;;;;;;11.47;3.50;;;17.70;99.90;;;;;;4863127;29;20561;-70
2022/10/31 15:26:52;;;;;;;7.97;3.67;;;17.60;99.90;;;;;;4863032;29;20585;-70
2022/10/31 15:29:22;;;;;;;7.50;3.92;;;17.60;99.90;;;;;;4862249;29;20216;-70
2022/10/31 15:31:55;;;;;;;11.95;3.53;;;17.50;99.90;;;;;;4862967;29;20235;-70
2022/10/31 15:34:26;;;;;;;9.67;3.60;;;17.40;99.90;;;;;;4862514;29;20716;-69
2022/10/31 15:36:53;;;;;;;6.40;3.50;;;17.30;99.90;;;;;;4862552;29;20707;-69
2022/10/31 15:39:20;;;;;;;10.52;3.55;;;17.30;99.90;;;;;;4862726;29;20218;-70
2022/10/31 15:41:51;;;;;;;12.20;4.00;;;17.30;99.90;;;;;;4862517;29;20243;-70
2022/10/31 15:44:22;;;;;;;10.70;4.13;;;17.20;99.90;;;;;;4862438;29;20216;-70
2022/10/31 15:46:56;;;;;;;14.03;3.90;;;17.10;99.90;;;;;;4862499;29;20284;-69
2022/10/31 15:49:32;;;;;;;9.40;3.93;;;17.10;99.90;;;;;;4862357;29;20207;-70
2022/10/31 15:52:05;;;;;;;6.90;3.60;;;17.10;99.90;;;;;;4862515;29;20219;-70
2022/10/31 15:54:32;;;;;;;8.23;3.73;;;17.10;99.90;;;;;;4862446;29;20211;-70
2022/10/31 15:56:59;;;;;;;16.43;4.17;;;17.00;99.90;;;;;;4861818;29;20232;-69
2022/10/31 15:59:28;;;;;;;14.00;5.03;;;17.00;99.90;;;;;;4861619;29;20218;-69
2022/10/31 16:02:04;;;;;;;18.00;5.75;;;16.90;99.90;;;;;;4861738;29;20249;-69
2022/10/31 16:04:31;;;;;;;16.33;5.63;;;16.80;99.90;;;;;;4861754;29;20664;-69
2022/10/31 16:07:01;;;;;;;8.73;4.27;;;16.90;99.90;;;;;;4861814;29;20232;-69
2022/10/31 16:09:28;;;;;;;9.53;3.57;;;16.90;99.90;;;;;;4861499;29;20216;-69
2022/10/31 16:11:57;;;;;;;7.57;4.03;;;17.00;99.90;;;;;;4861326;29;20218;-70
2022/10/31 16:14:27;;;;;;;9.83;4.47;;;17.00;99.90;;;;;;4861625;29;20656;-70
2022/10/31 16:16:57;;;;;;;14.23;4.07;;;17.00;99.90;;;;;;4861862;29;20292;-70
2022/10/31 16:19:29;;;;;;;10.33;4.27;;;17.00;99.90;;;;;;4861594;29;20216;-70
2022/10/31 16:22:03;;;;;;;7.10;3.67;;;17.00;99.90;;;;;;4861542;29;20236;-69
2022/10/31 16:24:34;;;;;;;12.50;4.60;;;16.90;99.90;;;;;;4861216;29;20216;-70
2022/10/31 16:27:05;;;;;;;8.73;4.30;;;16.80;99.90;;;;;;4861028;29;20279;-68
2022/10/31 16:29:36;;;;;;;7.43;3.80;;;16.80;99.90;;;;;;4861355;29;20211;-68
2022/10/31 16:32:04;;;;;;;9.27;4.30;;;16.70;99.90;;;;;;4860952;29;20219;-68
2022/10/31 16:34:33;;;;;;;7.13;3.90;;;16.60;99.90;;;;;;4861432;29;20264;-69
2022/10/31 16:37:02;;;;;;;8.03;4.00;;;16.50;99.90;;;;;;4861392;29;20255;-69
2022/10/31 16:39:29;;;;;;;6.83;3.70;;;16.40;99.90;;;;;;4861758;29;20228;-70
2022/10/31 16:41:57;;;;;;;7.37;3.43;;;16.40;99.90;;;;;;4860497;29;20247;-70
2022/10/31 16:44:25;;;;;;;6.67;3.27;;;16.30;99.90;;;;;;4861648;29;20212;-69
2022/10/31 16:47:09;;;;;;;7.80;3.33;;;16.30;99.90;;;;;;4861198;29;20240;-69
2022/10/31 16:49:37;;;;;;;8.17;3.03;;;16.10;99.90;;;;;;4861437;29;20219;-69
2022/10/31 16:52:04;;;;;;;5.43;3.10;;;16.10;99.90;;;;;;4861555;29;20226;-69
2022/10/31 16:54:31;;;;;;;13.77;5.70;;;16.10;99.90;;;;;;4861547;29;20208;-69
2022/10/31 16:57:00;;;;;;;16.33;4.63;;;16.00;99.90;;;;;;4861509;29;20238;-68
2022/10/31 16:59:27;;;;;;;12.77;4.97;;;15.90;99.90;;;;;;4861237;29;20215;-69
2022/10/31 17:01:56;;;;;;;16.80;5.10;;;15.80;99.90;;;;;;4861085;29;20240;-69
2022/10/31 17:04:23;;;;;;;13.67;4.90;;;15.80;99.90;;;;;;4861587;29;20228;-69
2022/10/31 17:06:51;;;;;;;12.17;4.47;;;15.80;99.90;;;;;;4861271;29;20243;-69
2022/10/31 17:09:17;;;;;;;14.93;4.80;;;15.80;99.90;;;;;;4860900;29;20718;-69
2022/10/31 17:11:47;;;;;;;13.43;4.80;;;15.70;99.90;;;;;;4861004;29;20235;-70
2022/10/31 17:14:14;;;;;;;13.77;5.13;;;15.70;99.90;;;;;;4861468;29;20239;-69
2022/10/31 17:16:40;;;;;;;11.07;4.50;;;15.60;99.90;;;;;;4860995;29;20236;-69
2022/10/31 17:19:10;;;;;;;5.77;3.10;;;15.60;99.90;;;;;;4861134;29;20208;-69
2022/10/31 17:21:37;;;;;;;9.63;4.07;;;15.60;99.90;;;;;;4860764;29;20231;-69
2022/10/31 17:24:06;;;;;;;9.50;4.53;;;15.50;99.90;;;;;;4860767;29;20215;-69
2022/10/31 17:26:33;;;;;;;10.97;4.10;;;15.50;99.90;;;;;;4860697;29;20235;-69
2022/10/31 17:29:02;;;;;;;12.33;3.90;;;15.50;99.90;;;;;;4860953;29;20219;-69
2022/10/31 17:31:31;;;;;;;8.20;3.93;;;15.40;99.90;;;;;;4860978;29;20216;-69
2022/10/31 17:33:59;;;;;;;8.23;3.70;;;15.50;99.90;;;;;;4860973;29;20216;-68
2022/10/31 17:36:26;;;;;;;9.13;3.50;;;15.40;99.90;;;;;;4860897;29;20288;-68
2022/10/31 17:38:53;;;;;;;5.10;2.87;;;15.30;99.90;;;;;;4861040;29;20211;-68
2022/10/31 17:41:21;;;;;;;6.70;3.00;;;15.30;99.90;;;;;;4861145;29;20227;-68
2022/10/31 17:43:48;;;;;;;8.07;3.10;;;15.40;99.90;;;;;;4860631;29;20212;-69
2022/10/31 17:46:15;;;;;;;5.30;2.93;;;15.40;99.90;;;;;;4860910;29;20228;-68
2022/10/31 17:48:41;;;;;;;9.60;2.97;;;15.40;99.90;;;;;;4861184;29;20227;-68
2022/10/31 17:51:08;;;;;;;5.87;2.90;;;15.40;99.90;;;;;;4860931;29;20212;-69
2022/10/31 17:53:35;;;;;;;6.13;2.63;;;15.40;99.90;;;;;;4863109;29;20561;-69
2022/10/31 17:56:03;;;;;;;5.17;2.77;;;15.40;99.90;;;;;;4863967;29;20334;-68
2022/10/31 17:58:32;;;;;;;5.33;2.70;;;15.40;99.90;;;;;;4864550;29;20215;-68
2022/10/31 18:00:59;;;;;;;4.40;2.13;;;15.40;99.90;;;;;;4864649;29;20243;-68
2022/10/31 18:03:26;;;;;;;7.77;2.77;;;15.50;99.90;;;;;;4863825;29;20730;-68
2022/10/31 18:05:55;;;;;;;4.57;2.83;;;15.50;99.90;;;;;;4864254;29;20231;-69
2022/10/31 18:08:25;;;;;;;8.73;2.60;;;15.60;99.90;;;;;;4864075;29;20226;-69
2022/10/31 18:10:52;;;;;;;6.13;2.13;;;15.60;99.90;;;;;;4864127;29;20698;-70
2022/10/31 18:13:19;;;;;;;6.90;2.03;;;15.70;99.90;;;;;;4864303;29;20223;-68
2022/10/31 18:15:47;;;;;;;7.13;2.57;;;15.70;99.90;;;;;;4864121;29;20228;-68
2022/10/31 18:18:13;;;;;;;5.83;2.37;;;15.80;99.90;;;;;;4864288;29;20220;-68
2022/10/31 18:20:40;;;;;;;6.50;2.73;;;15.80;99.90;;;;;;4864179;29;20216;-69
2022/10/31 18:23:07;;;;;;;5.03;2.33;;;15.80;99.90;;;;;;4863914;29;20734;-70
2022/10/31 18:25:34;;;;;;;5.37;2.57;;;15.90;99.90;;;;;;4863702;29;20212;-69
2022/10/31 18:28:01;;;;;;;4.20;2.43;;;15.90;99.90;;;;;;4863911;29;20219;-69
2022/10/31 18:30:28;;;;;;;4.67;2.60;;;15.90;99.90;;;;;;4864048;29;20216;-69
2022/10/31 18:32:56;;;;;;;7.50;2.40;;;16.00;99.90;;;;;;4863985;29;20211;-69
2022/10/31 18:35:23;;;;;;;6.67;2.63;;;16.00;99.90;;;;;;4863689;29;20218;-69
2022/10/31 18:37:50;;;;;;;5.80;2.17;;;16.10;99.90;;;;;;4863686;29;20211;-70
2022/10/31 18:40:17;;;;;;;5.80;2.00;;;16.10;99.90;;;;;;4863946;29;20211;-69
2022/10/31 18:42:43;;;;;;;3.73;1.97;;;16.10;99.90;;;;;;4863715;29;20243;-69
2022/10/31 18:45:11;;;;;;;4.60;2.20;;;16.10;99.90;;;;;;4863685;29;20208;-69
2022/10/31 18:47:37;;;;;;;4.77;2.23;;;16.10;99.90;;;;;;4863659;29;20239;-69
2022/10/31 18:50:07;;;;;;;5.83;2.20;;;16.10;99.90;;;;;;4863713;29;20208;-68
2022/10/31 18:52:33;;;;;;;4.10;2.13;;;16.10;99.90;;;;;;4863476;29;20227;-68
2022/10/31 18:55:00;;;;;;;4.03;1.87;;;16.20;99.90;;;;;;4862841;29;20218;-68
2022/10/31 18:57:27;;;;;;;5.80;2.43;;;16.10;99.90;;;;;;4863026;29;20240;-68
2022/10/31 18:59:54;;;;;;;5.53;2.20;;;16.10;99.90;;;;;;4863257;29;20629;-68
2022/10/31 19:02:21;;;;;;;5.47;2.77;;;16.10;99.90;;;;;;4863130;29;20239;-69
2022/10/31 19:04:47;;;;;;;5.90;2.40;;;16.10;99.90;;;;;;4861564;29;20322;-69
2022/10/31 19:07:17;;;;;;;4.60;2.20;;;16.10;99.90;;;;;;4854159;29;20275;-69
2022/10/31 19:09:44;;;;;;;6.70;1.93;;;16.10;99.90;;;;;;4849420;29;20212;-68
2022/10/31 19:12:11;;;;;;;7.10;2.17;;;16.10;99.90;;;;;;4851330;29;20220;-69
2022/10/31 19:14:37;;;;;;;4.23;1.97;;;16.10;99.90;;;;;;4860528;29;20230;-69
2022/10/31 19:17:04;;;;;;;3.90;2.20;;;16.10;99.90;;;;;;4858407;29;20228;-68
2022/10/31 19:19:31;;;;;;;5.83;2.43;;;16.10;99.90;;;;;;4849887;29;20212;-68
2022/10/31 19:21:58;;;;;;;6.90;2.40;;;16.10;99.90;;;;;;4856867;29;20492;-69
2022/10/31 19:24:26;;;;;;;4.83;2.43;;;16.00;99.90;;;;;;4856855;29;20680;-68
2022/10/31 19:26:53;;;;;;;4.93;2.07;;;16.00;99.90;;;;;;4858262;29;20227;-68
2022/10/31 19:29:20;;;;;;;4.43;2.20;;;16.00;99.90;;;;;;4859343;29;20212;-69
2022/10/31 19:31:47;;;;;;;5.50;2.00;;;16.00;99.90;;;;;;4853336;29;20213;-69
2022/10/31 19:34:14;;;;;;;7.47;2.43;;;16.00;99.90;;;;;;4854332;29;20267;-69
2022/10/31 19:36:41;;;;;;;6.33;2.10;;;15.90;99.90;;;;;;4859435;29;20236;-69
2022/10/31 19:39:10;;;;;;;6.30;2.03;;;15.90;99.90;;;;;;4851050;29;20219;-69
2022/10/31 19:41:38;;;;;;;4.27;2.17;;;15.90;99.90;;;;;;4855522;29;20221;-69
2022/10/31 19:44:05;;;;;;;4.30;2.10;;;15.90;99.90;;;;;;4857388;29;20603;-69
2022/10/31 19:46:32;;;;;;;4.27;1.63;;;15.90;99.90;;;;;;4856232;29;20233;-69
2022/10/31 19:48:59;;;;;;;7.77;2.40;;;15.80;99.90;;;;;;4856728;29;20212;-70
2022/10/31 19:51:26;;;;;;;3.37;1.93;;;15.90;99.90;;;;;;4852997;29;20242;-69
2022/10/31 19:53:54;;;;;;;4.67;2.20;;;16.00;99.90;;;;;;4853596;29;20212;-69
2022/10/31 19:56:23;;;;;;;4.90;2.27;;;16.00;99.90;;;;;;4854095;29;20691;-69
2022/10/31 19:58:52;;;;;;;4.87;2.30;;;16.00;99.90;;;;;;4849858;29;20219;-69
2022/10/31 20:01:20;;;;;;;5.57;2.47;;;16.00;99.90;;;;;;4854536;29;20569;-69
2022/10/31 20:03:47;;;;;;;7.20;2.50;;;16.00;99.90;;;;;;4855639;29;20335;-69
2022/10/31 20:06:16;;;;;;;9.53;2.40;;;16.00;99.90;;;;;;4859613;29;20236;-69
2022/10/31 20:08:43;;;;;;;6.90;2.20;;;16.10;99.90;;;;;;4856730;29;20222;-69
2022/10/31 20:11:10;;;;;;;4.03;2.10;;;16.20;99.90;;;;;;4854639;29;20215;-69
2022/10/31 20:13:36;;;;;;;6.37;2.37;;;16.20;99.90;;;;;;4853091;29;20299;-69
2022/10/31 20:16:08;;;;;;;6.03;2.43;;;16.30;99.90;;;;;;4849032;29;20233;-69
2022/10/31 20:18:35;;;;;;;6.53;2.30;;;16.30;99.90;;;;;;4852294;29;20223;-69
2022/10/31 20:21:03;;;;;;;6.67;2.33;;;16.40;99.90;;;;;;4856852;29;20212;-69
2022/10/31 20:23:30;;;;;;;6.17;2.00;;;16.50;99.90;;;;;;4859123;29;20266;-69
2022/10/31 20:25:56;;;;;;;6.07;3.10;;;16.50;99.90;;;;;;4856205;29;20234;-69
2022/10/31 20:28:23;;;;;;;7.80;2.23;;;16.60;99.90;;;;;;4856085;29;20215;-69
2022/10/31 20:30:50;;;;;;;5.63;1.97;;;16.70;99.90;;;;;;4857232;29;20216;-69
2022/10/31 20:33:18;;;;;;;2.60;1.60;;;16.70;99.90;;;;;;4854471;29;20216;-69
2022/10/31 20:35:45;;;;;;;4.73;1.67;;;16.80;99.90;;;;;;4856415;29;20730;-69
2022/10/31 20:38:12;;;;;;;5.33;1.90;;;16.80;99.90;;;;;;4857223;29;20208;-69
2022/10/31 20:40:39;;;;;;;6.17;1.90;;;16.80;99.90;;;;;;4847858;29;20208;-69
2022/10/31 20:43:06;;;;;;;3.73;1.70;;;16.80;99.90;;;;;;4850925;29;20339;-69
2022/10/31 20:45:33;;;;;;;4.27;2.10;;;16.80;99.90;;;;;;4849681;29;20208;-69
2022/10/31 20:48:00;;;;;;;5.37;1.83;;;16.80;99.90;;;;;;4855853;29;20219;-69
2022/10/31 20:50:28;;;;;;;3.23;1.80;;;16.80;99.90;;;;;;4856647;29;21036;-69
2022/10/31 20:52:55;;;;;;;3.53;1.87;;;16.80;99.90;;;;;;4852652;29;20216;-69
2022/10/31 20:55:22;;;;;;;9.53;2.23;;;16.80;99.90;;;;;;4855279;29;20327;-69
2022/10/31 20:57:49;;;;;;;5.87;2.10;;;16.80;99.90;;;;;;4851067;29;20691;-69
2022/10/31 21:00:16;;;;;;;5.70;2.30;;;16.80;99.90;;;;;;4853766;29;20581;-69
2022/10/31 21:02:43;;;;;;;2.97;1.73;;;16.70;99.90;;;;;;4849907;29;20243;-69
2022/10/31 21:05:11;;;;;;;3.50;1.90;;;16.80;99.90;;;;;;4855121;29;20581;-70
2022/10/31 21:07:41;;;;;;;5.43;2.00;;;16.80;99.90;;;;;;4855307;29;20240;-69
2022/10/31 21:10:13;;;;;;;8.07;2.20;;;16.80;99.90;;;;;;4851649;29;20224;-69
2022/10/31 21:12:41;;;;;;;5.73;1.93;;;16.90;99.90;;;;;;4853093;29;20223;-69
2022/10/31 21:15:09;;;;;;;4.43;1.80;;;16.80;99.90;;;;;;4848871;29;20208;-69
2022/10/31 21:17:36;;;;;;;4.30;1.90;;;16.90;99.90;;;;;;4857395;29;20235;-69